createdAt,value
2018-08-13T00:01:45.580Z,25.00
2018-08-13T00:04:14.170Z,24.90
2018-08-13T00:06:42.766Z,24.90
2018-08-13T00:09:11.366Z,24.80
2018-08-13T00:11:39.971Z,24.80
2018-08-13T00:14:08.538Z,24.80
2018-08-13T00:16:37.123Z,24.80
2018-08-13T00:19:06.014Z,24.80
2018-08-13T00:21:34.614Z,24.70
2018-08-13T00:24:03.279Z,24.70
2018-08-13T00:26:31.840Z,24.70
2018-08-13T00:29:00.493Z,24.70
2018-08-13T00:31:29.045Z,24.60
2018-08-13T00:33:57.635Z,24.60
2018-08-13T00:36:26.181Z,24.50
2018-08-13T00:38:54.866Z,24.50
2018-08-13T00:41:23.403Z,24.50
2018-08-13T00:43:52.014Z,24.50
2018-08-13T00:46:20.569Z,24.40
2018-08-13T00:48:49.165Z,24.40
2018-08-13T00:51:17.714Z,24.40
2018-08-13T00:53:46.304Z,24.40
2018-08-13T00:56:14.882Z,24.30
2018-08-13T00:58:43.481Z,24.30
2018-08-13T01:01:12.041Z,24.30
2018-08-13T01:03:40.642Z,24.30
2018-08-13T01:06:09.204Z,24.20
2018-08-13T01:08:38.620Z,24.20
2018-08-13T01:11:07.243Z,24.20
2018-08-13T01:13:35.857Z,24.20
2018-08-13T01:16:04.490Z,24.20
2018-08-13T01:18:33.104Z,24.10
2018-08-13T01:21:01.662Z,24.10
2018-08-13T01:23:30.269Z,24.10
2018-08-13T01:25:58.816Z,24.00
2018-08-13T01:28:27.379Z,24.00
2018-08-13T01:30:55.978Z,24.00
2018-08-13T01:33:24.562Z,24.00
2018-08-13T01:35:53.133Z,24.00
2018-08-13T01:38:21.662Z,23.90
2018-08-13T01:40:50.223Z,23.90
2018-08-13T01:43:18.831Z,23.80
2018-08-13T01:45:47.436Z,23.80
2018-08-13T01:48:15.999Z,23.80
2018-08-13T01:50:44.556Z,23.80
2018-08-13T01:53:13.126Z,23.80
2018-08-13T01:55:41.702Z,23.70
2018-08-13T01:58:10.349Z,23.70
2018-08-13T02:00:39.034Z,23.70
2018-08-13T02:03:07.622Z,23.70
2018-08-13T02:05:36.212Z,23.60
2018-08-13T02:08:04.814Z,23.60
2018-08-13T02:10:33.399Z,23.60
2018-08-13T02:13:01.990Z,23.60
2018-08-13T02:15:30.575Z,23.60
2018-08-13T02:17:59.164Z,23.50
2018-08-13T02:20:27.813Z,23.50
2018-08-13T02:22:56.362Z,23.40
2018-08-13T02:25:25.651Z,23.40
2018-08-13T02:27:54.246Z,23.40
2018-08-13T02:30:22.815Z,23.40
2018-08-13T02:32:51.421Z,23.40
2018-08-13T02:35:20.019Z,23.40
2018-08-13T02:37:48.589Z,23.30
2018-08-13T02:40:17.174Z,23.30
2018-08-13T02:42:45.739Z,23.30
2018-08-13T02:45:14.345Z,23.20
2018-08-13T02:47:42.869Z,23.20
2018-08-13T02:50:13.625Z,23.20
2018-08-13T02:52:42.353Z,23.20
2018-08-13T02:55:11.893Z,23.10
2018-08-13T02:57:40.465Z,23.10
2018-08-13T03:00:10.663Z,23.10
2018-08-13T03:02:39.793Z,23.10
2018-08-13T03:05:10.965Z,23.00
2018-08-13T03:07:39.839Z,23.00
2018-08-13T03:10:11.108Z,23.00
2018-08-13T03:12:39.671Z,23.00
2018-08-13T03:15:10.903Z,22.90
2018-08-13T03:17:39.511Z,22.90
2018-08-13T03:20:08.655Z,22.80
2018-08-13T03:22:37.257Z,22.80
2018-08-13T03:25:08.046Z,22.80
2018-08-13T03:27:36.648Z,22.80
2018-08-13T03:30:08.784Z,22.70
2018-08-13T03:32:37.695Z,22.70
2018-08-13T03:35:06.389Z,22.70
2018-08-13T03:37:34.968Z,22.70
2018-08-13T03:40:03.991Z,22.70
2018-08-13T03:42:32.574Z,22.60
2018-08-13T03:45:01.120Z,22.60
2018-08-13T03:47:29.683Z,22.60
2018-08-13T03:49:58.198Z,22.50
2018-08-13T03:52:26.799Z,22.50
2018-08-13T03:54:55.377Z,22.50
2018-08-13T03:57:23.954Z,22.50
2018-08-13T03:59:52.513Z,22.50
2018-08-13T04:02:21.120Z,22.50
2018-08-13T04:04:49.702Z,22.40
2018-08-13T04:07:18.253Z,22.40
2018-08-13T04:09:47.919Z,22.40
2018-08-13T04:12:16.489Z,22.40
2018-08-13T04:14:45.036Z,22.30
2018-08-13T04:17:13.736Z,22.30
2018-08-13T04:19:46.096Z,22.30
2018-08-13T04:22:14.865Z,22.20
2018-08-13T04:24:43.391Z,22.20
2018-08-13T04:27:11.954Z,22.20
2018-08-13T04:29:40.522Z,22.20
2018-08-13T04:32:09.102Z,22.10
2018-08-13T04:34:37.646Z,22.10
2018-08-13T04:37:06.282Z,22.10
2018-08-13T04:39:34.855Z,22.10
2018-08-13T04:42:03.557Z,22.10
2018-08-13T04:44:32.118Z,22.00
2018-08-13T04:47:03.303Z,22.00
2018-08-13T04:49:39.109Z,22.00
2018-08-13T04:52:08.080Z,22.00
2018-08-13T04:54:36.701Z,22.00
2018-08-13T04:57:05.311Z,22.00
2018-08-13T04:59:40.839Z,22.00
2018-08-13T05:02:09.437Z,21.90
2018-08-13T05:04:37.975Z,21.90
2018-08-13T05:07:06.535Z,21.90
2018-08-13T05:09:41.009Z,21.90
2018-08-13T05:12:09.724Z,21.80
2018-08-13T05:14:38.288Z,21.80
2018-08-13T05:17:07.080Z,21.80
2018-08-13T05:19:42.097Z,21.80
2018-08-13T05:22:10.755Z,21.80
2018-08-13T05:24:39.698Z,21.80
2018-08-13T05:27:08.255Z,21.80
2018-08-13T05:29:42.607Z,21.80
2018-08-13T05:32:11.269Z,21.80
2018-08-13T05:34:39.953Z,21.80
2018-08-13T05:37:08.538Z,21.80
2018-08-13T05:39:44.158Z,21.80
2018-08-13T05:42:12.770Z,21.80
2018-08-13T05:44:41.314Z,21.80
2018-08-13T05:47:10.098Z,21.80
2018-08-13T05:49:44.075Z,21.80
2018-08-13T05:52:12.638Z,21.90
2018-08-13T05:54:41.260Z,21.90
2018-08-13T05:57:09.887Z,21.90
2018-08-13T05:59:38.465Z,21.90
2018-08-13T06:02:07.156Z,21.90
2018-08-13T06:04:35.773Z,21.90
2018-08-13T06:07:04.365Z,21.90
2018-08-13T06:09:34.294Z,22.00
2018-08-13T06:12:03.054Z,22.00
2018-08-13T06:14:31.644Z,22.00
2018-08-13T06:17:00.210Z,22.00
2018-08-13T06:19:28.927Z,22.00
2018-08-13T06:21:57.610Z,22.00
2018-08-13T06:24:26.282Z,22.10
2018-08-13T06:26:56.634Z,22.10
2018-08-13T06:29:25.206Z,22.10
2018-08-13T06:31:53.980Z,22.10
2018-08-13T06:34:22.743Z,22.10
2018-08-13T06:36:51.345Z,22.10
2018-08-13T06:39:19.963Z,22.10
2018-08-13T06:41:48.627Z,22.10
2018-08-13T06:44:17.260Z,22.10
2018-08-13T06:46:45.881Z,22.10
2018-08-13T06:49:14.465Z,22.10
2018-08-13T06:51:43.011Z,22.20
2018-08-13T06:54:11.591Z,22.10
2018-08-13T06:56:40.198Z,22.20
2018-08-13T06:59:08.800Z,22.20
2018-08-13T07:01:37.379Z,22.20
2018-08-13T07:04:06.035Z,22.20
2018-08-13T07:06:34.777Z,22.20
2018-08-13T07:09:03.465Z,22.20
2018-08-13T07:11:32.036Z,22.20
2018-08-13T07:14:00.664Z,22.20
2018-08-13T07:16:29.420Z,22.20
2018-08-13T07:18:58.002Z,22.20
2018-08-13T07:21:26.608Z,22.20
2018-08-13T07:23:55.191Z,22.20
2018-08-13T07:26:23.838Z,22.20
2018-08-13T07:28:52.525Z,22.20
2018-08-13T07:31:21.124Z,22.30
2018-08-13T07:33:49.929Z,22.30
2018-08-13T07:36:18.454Z,22.30
2018-08-13T07:38:47.096Z,22.40
2018-08-13T07:41:15.689Z,22.40
2018-08-13T07:43:44.286Z,22.40
2018-08-13T07:46:12.950Z,22.40
2018-08-13T07:48:41.561Z,22.40
2018-08-13T07:51:10.153Z,22.40
2018-08-13T07:53:38.745Z,22.40
2018-08-13T07:56:07.405Z,22.40
2018-08-13T07:58:35.961Z,22.40
2018-08-13T08:01:04.602Z,22.40
2018-08-13T08:03:33.197Z,22.40
2018-08-13T08:06:01.803Z,22.40
2018-08-13T08:08:30.370Z,22.40
2018-08-13T08:10:59.075Z,22.50
2018-08-13T08:13:27.618Z,22.50
2018-08-13T08:15:56.218Z,23.40
2018-08-13T08:18:25.362Z,24.00
2018-08-13T08:20:54.019Z,23.80
2018-08-13T08:23:22.632Z,23.40
2018-08-13T08:25:51.209Z,23.00
2018-08-13T08:28:19.832Z,22.80
2018-08-13T08:30:48.460Z,22.70
2018-08-13T08:33:17.096Z,22.70
2018-08-13T08:35:45.703Z,22.70
2018-08-13T08:38:14.339Z,22.70
2018-08-13T08:40:43.010Z,22.60
2018-08-13T08:43:11.681Z,22.60
2018-08-13T08:45:40.399Z,22.60
2018-08-13T08:48:09.553Z,22.60
2018-08-13T08:50:38.148Z,22.70
2018-08-13T08:53:06.952Z,22.70
2018-08-13T08:55:36.452Z,22.70
2018-08-13T08:58:05.163Z,22.70
2018-08-13T09:00:33.793Z,22.70
2018-08-13T09:03:02.353Z,22.70
2018-08-13T09:05:30.987Z,22.80
2018-08-13T09:07:59.591Z,22.80
2018-08-13T09:10:28.265Z,22.90
2018-08-13T09:12:56.855Z,23.00
2018-08-13T09:15:25.457Z,23.00
2018-08-13T09:18:05.247Z,23.00
2018-08-13T09:20:45.118Z,23.10
2018-08-13T09:23:24.974Z,23.10
2018-08-13T09:26:04.769Z,23.50
2018-08-13T09:28:44.628Z,26.70
2018-08-13T09:31:22.448Z,28.10
2018-08-13T09:36:25.372Z,29.10
2018-08-13T09:38:54.501Z,29.20
2018-08-13T09:41:23.726Z,29.20
2018-08-13T09:43:53.003Z,29.20
2018-08-13T09:46:22.055Z,29.20
2018-08-13T09:48:50.662Z,29.20
2018-08-13T09:51:19.286Z,29.10
2018-08-13T09:53:48.043Z,29.10
2018-08-13T09:56:16.680Z,29.10
2018-08-13T09:58:45.280Z,29.10
2018-08-13T10:01:13.869Z,29.20
2018-08-13T10:03:42.463Z,29.20
2018-08-13T10:06:11.022Z,29.10
2018-08-13T10:08:39.643Z,29.20
2018-08-13T10:11:08.284Z,29.20
2018-08-13T10:13:36.850Z,29.30
2018-08-13T10:16:05.398Z,29.30
2018-08-13T10:18:34.005Z,29.40
2018-08-13T10:21:02.652Z,29.50
2018-08-13T10:23:31.285Z,29.30
2018-08-13T10:25:59.906Z,29.20
2018-08-13T10:28:28.493Z,29.10
2018-08-13T10:30:57.021Z,29.30
2018-08-13T10:33:25.591Z,29.20
2018-08-13T10:35:54.175Z,29.10
2018-08-13T10:38:22.884Z,29.20
2018-08-13T10:40:51.482Z,29.40
2018-08-13T10:43:20.123Z,29.40
2018-08-13T10:45:48.688Z,29.40
2018-08-13T10:48:17.281Z,29.50
2018-08-13T10:50:45.851Z,29.70
2018-08-13T10:53:14.443Z,29.80
2018-08-13T10:55:43.027Z,29.80
2018-08-13T10:58:11.666Z,29.90
2018-08-13T11:00:40.245Z,30.00
2018-08-13T11:03:09.049Z,30.00
2018-08-13T11:05:37.672Z,30.20
2018-08-13T11:08:06.290Z,30.10
2018-08-13T11:10:34.878Z,30.10
2018-08-13T11:13:03.511Z,30.00
2018-08-13T11:15:32.157Z,30.10
2018-08-13T11:18:00.729Z,30.10
2018-08-13T11:20:29.451Z,30.00
2018-08-13T11:22:58.076Z,30.10
2018-08-13T11:25:26.772Z,30.20
2018-08-13T11:27:56.044Z,30.30
2018-08-13T11:30:24.699Z,30.40
2018-08-13T11:32:53.328Z,30.60
2018-08-13T11:35:21.900Z,30.60
2018-08-13T11:37:50.503Z,30.40
2018-08-13T11:40:19.249Z,30.50
2018-08-13T11:42:47.831Z,30.60
2018-08-13T11:45:16.456Z,30.60
2018-08-13T11:47:45.064Z,30.80
2018-08-13T11:50:17.799Z,30.90
2018-08-13T11:52:48.039Z,30.90
2018-08-13T11:55:17.220Z,31.00
2018-08-13T11:57:46.498Z,31.10
2018-08-13T12:00:15.447Z,31.20
2018-08-13T12:02:44.123Z,31.20
2018-08-13T12:05:14.587Z,31.20
2018-08-13T12:07:43.899Z,31.20
2018-08-13T12:10:13.579Z,31.10
2018-08-13T12:12:43.119Z,31.20
2018-08-13T12:15:12.637Z,31.20
2018-08-13T12:17:41.723Z,31.20
2018-08-13T12:20:13.252Z,31.10
2018-08-13T12:22:42.226Z,31.10
2018-08-13T12:25:11.308Z,31.00
2018-08-13T12:27:39.981Z,31.00
2018-08-13T12:30:09.969Z,31.00
2018-08-13T12:32:38.542Z,30.10
2018-08-13T12:35:07.595Z,29.30
2018-08-13T12:37:36.351Z,29.00
2018-08-13T12:40:07.682Z,28.80
2018-08-13T12:42:36.662Z,28.60
2018-08-13T12:45:08.027Z,28.40
2018-08-13T12:47:36.930Z,28.20
2018-08-13T12:50:08.207Z,28.00
2018-08-13T12:52:36.760Z,27.90
2018-08-13T12:55:06.905Z,27.80
2018-08-13T12:57:35.622Z,27.80
2018-08-13T13:00:05.321Z,27.80
2018-08-13T13:02:33.942Z,27.70
2018-08-13T13:05:02.641Z,27.60
2018-08-13T13:07:31.533Z,27.60
2018-08-13T13:10:00.153Z,27.60
2018-08-13T13:12:28.743Z,27.60
2018-08-13T13:14:57.347Z,27.60
2018-08-13T13:17:25.964Z,27.50
2018-08-13T13:19:54.595Z,27.50
2018-08-13T13:22:23.180Z,27.40
2018-08-13T13:24:51.784Z,27.30
2018-08-13T13:27:20.389Z,27.30
2018-08-13T13:29:48.970Z,27.20
2018-08-13T13:32:17.539Z,27.20
2018-08-13T13:34:46.124Z,27.20
2018-08-13T13:37:14.706Z,27.10
2018-08-13T13:39:43.287Z,27.10
2018-08-13T13:42:11.917Z,27.10
2018-08-13T13:44:40.519Z,27.00
2018-08-13T13:47:09.141Z,27.00
2018-08-13T13:49:37.800Z,27.00
2018-08-13T13:52:06.794Z,27.00
2018-08-13T13:54:35.388Z,27.00
2018-08-13T13:57:13.162Z,27.00
2018-08-13T13:59:41.669Z,26.90
2018-08-13T14:02:10.531Z,26.90
2018-08-13T14:04:39.116Z,26.90
2018-08-13T14:07:08.357Z,26.80
2018-08-13T14:09:36.966Z,26.80
2018-08-13T14:12:05.578Z,26.80
2018-08-13T14:14:34.166Z,26.70
2018-08-13T14:17:02.860Z,26.70
2018-08-13T14:19:31.433Z,26.70
2018-08-13T14:22:00.106Z,26.70
2018-08-13T14:24:28.925Z,27.50
2018-08-13T14:26:58.021Z,28.50
2018-08-13T14:29:26.606Z,29.70
2018-08-13T14:31:55.184Z,30.40
2018-08-13T14:34:23.830Z,30.80
2018-08-13T14:36:52.418Z,31.10
2018-08-13T14:39:21.014Z,31.30
2018-08-13T14:41:49.607Z,31.50
2018-08-13T14:44:18.294Z,31.60
2018-08-13T14:46:47.429Z,31.70
2018-08-13T14:49:15.985Z,31.60
2018-08-13T14:51:44.569Z,31.60
2018-08-13T14:54:13.126Z,31.60
2018-08-13T14:56:41.737Z,31.60
2018-08-13T14:59:10.369Z,31.50
2018-08-13T15:01:38.986Z,31.40
2018-08-13T15:04:07.573Z,31.40
2018-08-13T15:06:36.131Z,31.30
2018-08-13T15:09:07.700Z,31.30
2018-08-13T15:11:36.366Z,31.30
2018-08-13T15:14:05.659Z,31.20
2018-08-13T15:16:34.228Z,31.20
2018-08-13T15:19:02.799Z,31.10
2018-08-13T15:21:31.468Z,31.10
2018-08-13T15:24:00.034Z,31.00
2018-08-13T15:26:28.721Z,31.00
2018-08-13T15:28:57.294Z,30.90
2018-08-13T15:31:26.033Z,30.80
2018-08-13T15:33:54.706Z,30.70
2018-08-13T15:36:23.357Z,30.60
2018-08-13T15:38:51.946Z,30.50
2018-08-13T15:41:20.503Z,30.50
2018-08-13T15:43:49.121Z,30.50
2018-08-13T15:46:17.727Z,30.40
2018-08-13T15:48:46.639Z,30.30
2018-08-13T15:51:15.233Z,30.20
2018-08-13T15:53:43.801Z,30.20
2018-08-13T15:56:12.370Z,30.10
2018-08-13T15:58:40.994Z,30.10
2018-08-13T16:01:09.576Z,30.10
2018-08-13T16:03:38.170Z,30.00
2018-08-13T16:06:06.755Z,29.90
2018-08-13T16:08:35.356Z,29.90
2018-08-13T16:11:03.974Z,29.80
2018-08-13T16:13:32.567Z,29.70
2018-08-13T16:16:01.135Z,29.70
2018-08-13T16:18:29.754Z,29.70
2018-08-13T16:20:58.348Z,29.60
2018-08-13T16:23:26.916Z,29.50
2018-08-13T16:25:55.531Z,29.50
2018-08-13T16:28:24.173Z,29.40
2018-08-13T16:30:52.825Z,29.30
2018-08-13T16:33:21.428Z,29.30
2018-08-13T16:35:50.055Z,29.20
2018-08-13T16:38:18.877Z,29.20
2018-08-13T16:40:47.429Z,29.10
2018-08-13T16:43:16.023Z,29.00
2018-08-13T16:45:44.595Z,29.00
2018-08-13T16:48:13.207Z,28.90
2018-08-13T16:50:41.846Z,28.90
2018-08-13T16:53:10.470Z,28.90
2018-08-13T16:55:39.140Z,28.80
2018-08-13T16:58:07.778Z,28.70
2018-08-13T17:00:36.371Z,28.70
2018-08-13T17:03:05.242Z,28.60
2018-08-13T17:05:34.892Z,28.60
2018-08-13T17:08:03.890Z,28.50
2018-08-13T17:10:32.558Z,28.50
2018-08-13T17:13:01.155Z,28.40
2018-08-13T17:15:31.201Z,28.40
2018-08-13T17:18:01.403Z,28.40
2018-08-13T17:20:33.078Z,28.30
2018-08-13T17:23:01.832Z,28.30
2018-08-13T17:25:30.454Z,28.20
2018-08-13T17:27:59.083Z,28.20
2018-08-13T17:30:28.103Z,28.20
2018-08-13T17:32:58.383Z,28.10
2018-08-13T17:35:29.751Z,28.00
2018-08-13T17:37:59.321Z,28.00
2018-08-13T17:40:28.434Z,28.00
2018-08-13T17:42:57.280Z,27.90
2018-08-13T17:45:25.959Z,27.90
2018-08-13T17:47:54.686Z,27.90
2018-08-13T17:50:23.935Z,27.80
2018-08-13T17:52:52.785Z,27.80
2018-08-13T17:55:21.577Z,27.80
2018-08-13T17:57:50.176Z,27.70
2018-08-13T18:00:20.316Z,27.70
2018-08-13T18:02:48.945Z,27.60
2018-08-13T18:05:19.827Z,27.60
2018-08-13T18:07:48.748Z,27.50
2018-08-13T18:10:24.989Z,27.50
2018-08-13T18:12:54.475Z,27.50
2018-08-13T18:15:23.144Z,27.50
2018-08-13T18:17:51.804Z,27.40
2018-08-13T18:20:20.475Z,27.40
2018-08-13T18:22:49.386Z,27.30
2018-08-13T18:25:17.872Z,27.30
2018-08-13T18:27:47.887Z,27.20
2018-08-13T18:30:19.318Z,27.20
2018-08-13T18:32:48.282Z,27.20
2018-08-13T18:35:17.111Z,27.10
2018-08-13T18:37:46.050Z,27.10
2018-08-13T18:40:22.202Z,27.10
2018-08-13T18:42:51.042Z,27.00
2018-08-13T18:45:19.675Z,26.90
2018-08-13T18:47:49.042Z,26.90
2018-08-13T18:50:18.856Z,26.90
2018-08-13T18:52:47.627Z,26.90
2018-08-13T18:55:17.879Z,26.80
2018-08-13T18:57:46.787Z,26.80
2018-08-13T19:00:18.171Z,26.70
2018-08-13T19:02:46.989Z,26.70
2018-08-13T19:05:17.349Z,26.70
2018-08-13T19:07:46.599Z,26.60
2018-08-13T19:10:16.242Z,26.60
2018-08-13T19:12:45.063Z,26.60
2018-08-13T19:15:22.921Z,26.50
2018-08-13T19:17:52.229Z,26.50
2018-08-13T19:20:21.111Z,26.50
2018-08-13T19:22:49.947Z,26.40
2018-08-13T19:25:22.027Z,26.40
2018-08-13T19:27:50.590Z,26.30
2018-08-13T19:30:20.279Z,26.30
2018-08-13T19:32:49.687Z,26.30
2018-08-13T19:35:18.395Z,26.20
2018-08-13T19:37:47.458Z,26.20
2018-08-13T19:40:19.160Z,26.20
2018-08-13T19:42:48.716Z,26.20
2018-08-13T19:45:18.287Z,26.10
2018-08-13T19:47:47.308Z,26.10
2018-08-13T19:50:16.276Z,26.10
2018-08-13T19:52:46.240Z,26.00
2018-08-13T19:55:15.149Z,26.00
2018-08-13T19:57:43.711Z,25.90
2018-08-13T20:00:14.543Z,25.90
2018-08-13T20:02:43.096Z,25.90
2018-08-13T20:05:11.666Z,25.90
2018-08-13T20:07:40.390Z,25.90
2018-08-13T20:10:10.990Z,25.90
2018-08-13T20:12:39.600Z,25.80
2018-08-13T20:15:08.433Z,25.70
2018-08-13T20:17:37.075Z,25.70
2018-08-13T20:20:11.974Z,25.70
2018-08-13T20:22:40.614Z,25.70
2018-08-13T20:25:11.090Z,25.70
2018-08-13T20:27:40.048Z,25.60
2018-08-13T20:30:11.108Z,25.60
2018-08-13T20:32:39.758Z,25.60
2018-08-13T20:35:08.364Z,25.50
2018-08-13T20:37:36.915Z,25.50
2018-08-13T20:40:07.273Z,25.50
2018-08-13T20:42:35.855Z,25.50
2018-08-13T20:45:05.954Z,25.40
2018-08-13T20:47:34.551Z,25.40
2018-08-13T20:50:03.158Z,25.40
2018-08-13T20:52:31.732Z,25.40
2018-08-13T20:55:00.355Z,25.30
2018-08-13T20:57:29.014Z,25.30
2018-08-13T20:59:57.665Z,25.30
2018-08-13T21:02:26.266Z,25.30
2018-08-13T21:04:54.843Z,25.20
2018-08-13T21:07:23.441Z,25.20
2018-08-13T21:09:52.059Z,25.10
2018-08-13T21:12:20.822Z,25.10
2018-08-13T21:14:49.397Z,25.10
2018-08-13T21:17:18.008Z,25.10
2018-08-13T21:19:46.626Z,25.00
2018-08-13T21:22:15.262Z,25.00
2018-08-13T21:24:43.810Z,25.00
2018-08-13T21:27:12.436Z,25.00
2018-08-13T21:29:41.066Z,25.00
2018-08-13T21:32:10.007Z,25.00
2018-08-13T21:34:38.658Z,24.90
2018-08-13T21:37:07.283Z,24.90
2018-08-13T21:39:35.877Z,24.80
2018-08-13T21:42:04.523Z,24.80
2018-08-13T21:44:33.087Z,24.80
2018-08-13T21:47:02.331Z,24.80
2018-08-13T21:49:30.991Z,24.80
2018-08-13T21:51:59.594Z,24.70
2018-08-13T21:54:28.223Z,24.70
2018-08-13T21:56:56.809Z,24.70
2018-08-13T21:59:25.415Z,24.70
2018-08-13T22:01:54.489Z,24.60
2018-08-13T22:04:23.065Z,24.60
2018-08-13T22:06:51.612Z,24.60
2018-08-13T22:09:20.214Z,24.60
2018-08-13T22:11:48.781Z,24.50
2018-08-13T22:14:17.357Z,24.50
2018-08-13T22:16:45.982Z,24.50
2018-08-13T22:19:14.554Z,24.50
2018-08-13T22:21:43.175Z,24.40
2018-08-13T22:24:23.084Z,24.40
2018-08-13T22:26:51.646Z,24.40
2018-08-13T22:29:20.220Z,24.40
2018-08-13T22:31:48.824Z,24.30
2018-08-13T22:34:17.391Z,24.30
2018-08-13T22:36:45.995Z,24.30
2018-08-13T22:39:14.624Z,24.30
2018-08-13T22:41:43.370Z,24.30
2018-08-13T22:44:11.929Z,24.20
2018-08-13T22:46:40.530Z,24.20
2018-08-13T22:49:09.114Z,24.20
2018-08-13T22:51:37.669Z,24.10
2018-08-13T22:54:06.281Z,24.10
2018-08-13T22:56:34.822Z,24.10
2018-08-13T22:59:03.440Z,24.10
2018-08-13T23:01:32.030Z,24.10
2018-08-13T23:04:00.657Z,24.00
2018-08-13T23:06:29.507Z,24.00
2018-08-13T23:08:58.112Z,24.00
2018-08-13T23:11:26.770Z,24.00
2018-08-13T23:13:55.370Z,24.00
2018-08-13T23:16:23.952Z,23.90
2018-08-13T23:18:52.542Z,23.90
2018-08-13T23:21:21.179Z,23.90
2018-08-13T23:23:49.769Z,23.80
2018-08-13T23:26:18.428Z,23.80
2018-08-13T23:28:47.063Z,23.80
2018-08-13T23:31:15.797Z,23.80
2018-08-13T23:33:44.418Z,23.80
2018-08-13T23:36:12.969Z,23.70
2018-08-13T23:38:41.581Z,23.70
2018-08-13T23:41:10.164Z,23.70
2018-08-13T23:43:38.754Z,23.70
2018-08-13T23:46:07.394Z,23.70
2018-08-13T23:48:35.978Z,23.60
2018-08-13T23:51:04.590Z,23.60
2018-08-13T23:53:33.213Z,23.60
2018-08-13T23:56:01.835Z,23.60
2018-08-13T23:58:30.421Z,23.50
